createdAt,value
2023-03-12T00:01:47.858Z,-2.70
2023-03-12T00:06:49.571Z,-2.90
2023-03-12T00:11:51.312Z,-3.10
2023-03-12T00:16:53.494Z,-3.20
2023-03-12T00:21:55.325Z,-3.40
2023-03-12T00:26:57.047Z,-3.60
2023-03-12T00:31:58.880Z,-3.60
2023-03-12T00:37:00.648Z,-3.40
2023-03-12T00:42:02.567Z,-3.20
2023-03-12T00:47:04.741Z,-3.00
2023-03-12T00:52:06.679Z,-2.80
2023-03-12T00:57:10.913Z,-2.70
2023-03-12T01:02:12.702Z,-2.50
2023-03-12T01:07:14.430Z,-2.50
2023-03-12T01:12:16.268Z,-2.30
2023-03-12T01:17:18.024Z,-2.20
2023-03-12T01:22:19.737Z,-2.20
2023-03-12T01:27:21.501Z,-2.10
2023-03-12T01:32:23.309Z,-2.10
2023-03-12T01:37:25.066Z,-2.10
2023-03-12T01:42:26.941Z,-2.20
2023-03-12T01:47:31.878Z,-2.10
2023-03-12T01:52:36.674Z,-2.10
2023-03-12T01:57:44.143Z,-2.10
2023-03-12T02:02:47.667Z,-2.20
2023-03-12T02:07:49.482Z,-2.30
2023-03-12T02:12:51.841Z,-2.40
2023-03-12T02:17:54.278Z,-2.60
2023-03-12T02:23:28.108Z,-2.80
2023-03-12T02:28:30.496Z,-2.90
2023-03-12T02:33:32.444Z,-3.00
2023-03-12T02:38:38.987Z,-3.00
2023-03-12T02:43:44.482Z,-3.20
2023-03-12T02:48:46.464Z,-3.20
2023-03-12T02:53:50.259Z,-3.20
2023-03-12T02:58:52.034Z,-3.40
2023-03-12T03:03:54.808Z,-3.40
2023-03-12T03:08:56.634Z,-3.50
2023-03-12T03:13:58.381Z,-3.50
2023-03-12T03:19:00.134Z,-3.30
2023-03-12T03:24:01.920Z,-3.30
2023-03-12T03:29:03.805Z,-3.30
2023-03-12T03:34:05.671Z,-3.30
2023-03-12T03:39:07.413Z,-3.40
2023-03-12T03:44:09.411Z,-3.40
2023-03-12T03:49:11.463Z,-3.60
2023-03-12T03:54:13.385Z,-3.80
2023-03-12T03:59:15.145Z,-4.00
2023-03-12T04:04:16.887Z,-4.20
2023-03-12T04:09:18.665Z,-4.40
2023-03-12T04:14:20.399Z,-4.70
2023-03-12T04:19:22.347Z,-4.90
2023-03-12T04:24:24.143Z,-4.80
2023-03-12T04:29:26.571Z,-4.70
2023-03-12T04:34:28.374Z,-4.50
2023-03-12T04:39:30.193Z,-4.50
2023-03-12T04:44:32.111Z,-4.70
2023-03-12T04:49:33.890Z,-4.80
2023-03-12T04:54:35.648Z,-4.80
2023-03-12T04:59:37.466Z,-4.70
2023-03-12T05:04:39.203Z,-4.60
2023-03-12T05:09:41.521Z,-4.30
2023-03-12T05:14:43.202Z,-4.10
2023-03-12T05:19:44.930Z,-4.10
2023-03-12T05:24:46.705Z,-4.00
2023-03-12T05:29:48.425Z,-4.00
2023-03-12T05:34:50.201Z,-3.90
2023-03-12T05:39:54.352Z,-3.80
2023-03-12T05:44:56.892Z,-3.80
2023-03-12T05:49:58.713Z,-3.80
2023-03-12T05:55:00.393Z,-3.80
2023-03-12T06:00:02.247Z,-3.70
2023-03-12T06:05:04.269Z,-3.10
2023-03-12T06:10:06.703Z,-1.50
2023-03-12T06:15:09.029Z,-0.70
2023-03-12T06:20:11.511Z,-0.50
2023-03-12T06:25:13.313Z,-0.10
2023-03-12T06:30:15.671Z,-0.80
2023-03-12T06:35:17.597Z,-0.90
2023-03-12T06:40:19.437Z,-1.00
2023-03-12T06:45:21.322Z,-1.00
2023-03-12T06:50:23.035Z,-0.20
2023-03-12T06:55:24.819Z,-0.10
2023-03-12T07:00:26.538Z,0.10
2023-03-12T07:05:30.057Z,1.50
2023-03-12T07:10:32.062Z,2.10
2023-03-12T07:15:34.501Z,4.60
2023-03-12T07:20:38.519Z,5.90
2023-03-12T07:25:42.769Z,4.70
2023-03-12T07:30:50.290Z,5.70
2023-03-12T07:35:52.244Z,8.00
2023-03-12T07:40:56.167Z,8.30
2023-03-12T07:45:58.209Z,9.50
2023-03-12T07:51:00.118Z,10.70
2023-03-12T07:56:02.143Z,9.60
2023-03-12T08:01:04.114Z,9.80
2023-03-12T08:06:06.634Z,11.40
2023-03-12T08:11:09.295Z,9.90
2023-03-12T08:16:11.431Z,12.10
2023-03-12T08:21:16.428Z,12.60
2023-03-12T08:26:18.334Z,13.80
2023-03-12T08:31:20.198Z,11.60
2023-03-12T08:36:22.609Z,12.60
2023-03-12T08:41:24.433Z,10.90
2023-03-12T08:46:26.431Z,10.90
2023-03-12T08:51:28.153Z,11.60
2023-03-12T08:56:29.915Z,13.70
2023-03-12T09:01:31.705Z,12.00
2023-03-12T09:06:35.371Z,11.80
2023-03-12T09:11:39.908Z,12.40
2023-03-12T09:16:41.824Z,9.20
2023-03-12T09:21:43.939Z,9.10
2023-03-12T09:26:46.254Z,9.60
2023-03-12T09:31:48.144Z,11.70
2023-03-12T09:36:50.018Z,12.50
2023-03-12T09:41:52.275Z,9.90
2023-03-12T09:47:02.246Z,10.50
2023-03-12T09:52:21.314Z,10.60
2023-03-12T09:57:25.580Z,11.90
2023-03-12T10:02:48.433Z,12.60
2023-03-12T10:08:24.007Z,14.20
2023-03-12T10:13:37.986Z,13.00
2023-03-12T10:18:42.954Z,12.00
2023-03-12T10:24:08.852Z,11.40
2023-03-12T10:29:16.051Z,9.30
2023-03-12T10:34:25.557Z,7.50
2023-03-12T10:39:27.514Z,5.60
2023-03-12T10:44:29.701Z,4.60
2023-03-12T10:49:34.674Z,4.50
2023-03-12T10:54:40.496Z,4.60
2023-03-12T10:59:45.226Z,4.80
2023-03-12T11:04:51.756Z,5.20
2023-03-12T11:10:08.825Z,5.40
2023-03-12T11:15:47.805Z,5.20
2023-03-12T11:20:53.111Z,5.50
2023-03-12T11:26:12.911Z,5.80
2023-03-12T11:31:28.585Z,5.00
2023-03-12T11:36:54.781Z,5.20
2023-03-12T11:42:37.908Z,5.80
2023-03-12T11:47:58.649Z,5.70
2023-03-12T11:53:00.516Z,5.40
2023-03-12T11:58:30.248Z,4.70
2023-03-12T12:03:53.393Z,3.90
2023-03-12T12:09:04.848Z,3.60
2023-03-12T12:14:21.685Z,3.10
2023-03-12T12:19:42.014Z,3.20
2023-03-12T12:25:05.766Z,3.80
2023-03-12T12:30:33.664Z,3.70
2023-03-12T12:35:40.380Z,3.60
2023-03-12T12:40:47.850Z,3.40
2023-03-12T12:45:53.010Z,3.30
2023-03-12T12:51:00.102Z,3.30
2023-03-12T12:56:16.060Z,3.30
2023-03-12T13:01:18.398Z,3.10
2023-03-12T13:06:20.097Z,2.80
2023-03-12T13:11:41.404Z,2.50
2023-03-12T13:16:46.168Z,2.40
2023-03-12T13:22:12.547Z,2.50
2023-03-12T13:27:24.346Z,2.40
2023-03-12T13:32:35.356Z,2.30
2023-03-12T13:37:52.273Z,2.20
2023-03-12T13:43:06.473Z,2.20
2023-03-12T13:48:19.656Z,2.20
2023-03-12T13:53:41.696Z,2.20
2023-03-12T13:59:04.821Z,2.10
2023-03-12T14:04:13.276Z,2.20
2023-03-12T14:09:30.195Z,2.20
2023-03-12T14:14:41.369Z,2.20
2023-03-12T14:19:49.203Z,2.20
2023-03-12T14:24:56.772Z,2.10
2023-03-12T14:30:16.337Z,2.10
2023-03-12T14:35:25.965Z,2.10
2023-03-12T14:40:39.450Z,2.00
2023-03-12T14:45:41.165Z,2.10
2023-03-12T14:50:43.029Z,2.00
2023-03-12T14:55:44.822Z,2.00
2023-03-12T15:00:59.774Z,1.90
2023-03-12T15:06:01.549Z,1.80
2023-03-12T15:11:03.754Z,1.70
2023-03-12T15:16:06.315Z,1.60
2023-03-12T15:21:08.770Z,1.30
2023-03-12T15:26:10.654Z,1.00
2023-03-12T15:31:15.995Z,0.80
2023-03-12T15:36:17.843Z,0.60
2023-03-12T15:41:23.375Z,0.50
2023-03-12T15:46:26.430Z,0.50
2023-03-12T15:51:34.666Z,0.40
2023-03-12T15:56:36.476Z,0.30
2023-03-12T16:01:53.856Z,0.10
2023-03-12T16:06:55.694Z,-0.10
2023-03-12T16:11:57.663Z,-0.30
2023-03-12T16:17:00.531Z,-0.40
2023-03-12T16:22:02.243Z,-0.40
2023-03-12T16:27:07.501Z,-0.60
2023-03-12T16:32:14.955Z,-0.70
2023-03-12T16:37:17.037Z,-0.90
2023-03-12T16:42:20.601Z,-0.90
2023-03-12T16:47:22.400Z,-0.90
2023-03-12T16:52:26.690Z,-1.00
2023-03-12T16:57:37.557Z,-1.00
2023-03-12T17:02:39.504Z,-1.10
2023-03-12T17:07:41.577Z,-0.90
2023-03-12T17:12:44.703Z,-0.80
2023-03-12T17:17:49.279Z,-0.70
2023-03-12T17:22:51.448Z,-0.50
2023-03-12T17:27:53.944Z,-0.30
2023-03-12T17:33:14.799Z,-0.20
2023-03-12T17:38:16.500Z,0.00
2023-03-12T17:43:18.310Z,0.00
2023-03-12T17:48:23.071Z,0.00
2023-03-12T17:53:25.078Z,0.00
2023-03-12T17:58:27.014Z,-0.10
2023-03-12T18:03:29.238Z,-0.10
2023-03-12T18:08:31.268Z,-0.20
2023-03-12T18:13:33.171Z,-0.30
2023-03-12T18:18:35.050Z,-0.20
2023-03-12T18:23:36.773Z,-0.30
2023-03-12T18:28:38.472Z,-0.20
2023-03-12T18:33:41.809Z,-0.20
2023-03-12T18:38:43.537Z,-0.30
2023-03-12T18:43:45.346Z,-0.30
2023-03-12T18:48:47.054Z,-0.40
2023-03-12T18:53:48.945Z,-0.50
2023-03-12T18:58:50.646Z,-0.70
2023-03-12T19:03:52.588Z,-0.70
2023-03-12T19:08:54.523Z,-0.90
2023-03-12T19:13:56.289Z,-1.00
2023-03-12T19:18:58.307Z,-1.10
2023-03-12T19:24:00.361Z,-1.20
2023-03-12T19:29:02.094Z,-1.20
2023-03-12T19:34:03.935Z,-1.40
2023-03-12T19:39:15.185Z,-1.40
2023-03-12T19:44:22.558Z,-1.50
2023-03-12T19:49:24.349Z,-1.60
2023-03-12T19:54:26.074Z,-1.50
2023-03-12T19:59:27.806Z,-1.50
2023-03-12T20:04:29.745Z,-1.50
2023-03-12T20:09:32.076Z,-1.50
2023-03-12T20:14:33.969Z,-1.40
2023-03-12T20:19:35.715Z,-1.40
2023-03-12T20:24:37.508Z,-1.30
2023-03-12T20:29:39.508Z,-1.30
2023-03-12T20:34:41.296Z,-1.20
2023-03-12T20:39:43.274Z,-1.30
2023-03-12T20:44:44.984Z,-1.30
2023-03-12T20:49:46.665Z,-1.50
2023-03-12T20:54:48.559Z,-1.70
2023-03-12T20:59:50.296Z,-1.80
2023-03-12T21:04:54.080Z,-1.90
2023-03-12T21:09:55.793Z,-2.00
2023-03-12T21:15:06.096Z,-2.00
2023-03-12T21:20:10.967Z,-2.10
2023-03-12T21:25:13.180Z,-2.10
2023-03-12T21:30:15.314Z,-2.10
2023-03-12T21:35:17.657Z,-2.30
2023-03-12T21:40:19.499Z,-2.20
2023-03-12T21:45:21.305Z,-2.30
2023-03-12T21:50:23.374Z,-2.30
2023-03-12T21:55:25.177Z,-2.30
2023-03-12T22:00:26.903Z,-2.30
2023-03-12T22:05:28.832Z,-2.40
2023-03-12T22:10:30.535Z,-2.50
2023-03-12T22:15:32.245Z,-2.70
2023-03-12T22:20:37.361Z,-2.70
2023-03-12T22:25:39.103Z,-2.70
2023-03-12T22:30:40.994Z,-2.80
2023-03-12T22:35:46.844Z,-2.90
2023-03-12T22:40:49.232Z,-2.80
2023-03-12T22:45:55.878Z,-2.80
2023-03-12T22:50:57.729Z,-2.90
2023-03-12T22:56:02.397Z,-3.00
2023-03-12T23:01:09.028Z,-3.10
2023-03-12T23:06:22.921Z,-3.10
2023-03-12T23:11:26.360Z,-3.10
2023-03-12T23:16:28.220Z,-3.20
2023-03-12T23:21:30.899Z,-3.30
2023-03-12T23:26:33.824Z,-3.30
2023-03-12T23:31:35.569Z,-3.30
2023-03-12T23:36:37.391Z,-3.40
2023-03-12T23:41:39.212Z,-3.40
2023-03-12T23:46:40.949Z,-3.40
2023-03-12T23:51:42.825Z,-3.60
2023-03-12T23:56:44.718Z,-3.70
